MDPP

Details ICAO MDPP (POP)
Name Puerto Plata Gregorio Luperon International
Region Dominican Republic
Timezone America/Santo_Domingo (UTC-4.0)
Plans Departing 190
Arriving 255
Stats Elevation 15 ft / 5 m (AMSL)
Location 19.757900° -70.570000°
Runways 1
Magnetic Variation 11.287° W
Sunrise 2018-10-15 10:37:59 UTC / 2018-10-15 06:37:59 Local
Sunset 2018-10-15 22:20:22 UTC / 2018-10-15 18:20:22 Local
Advertisement - Login to hide

Runways

ID Width Length Bearing (true/mag) Surface Threshold Overrun Markings Lighting
08 151 ft / 46 m 10,103 ft / 3,080 m 72.94° / 84.23° ASPHALT 0 ft / 0 m 0 ft / 0 m PREC-APP EDGE THRESHOLD REIL-OMNI
26 151 ft / 46 m 10,103 ft / 3,080 m 252.95° / 264.24° ASPHALT 0 ft / 0 m 0 ft / 0 m PREC-APP EDGE THRESHOLD REIL-OMNI

Map

Weather


0- 5 10 15 20 25 30 35+ Temperature / °C

Clouds and Precipitation
Forecast for 2018-10-16 00:00 UTC. Updated 2 hours ago

Ground ~20,000 ft ~40,000 ft Winds

METAR

MDPP 160000Z 00000KT 9999 FEW018 SCT070 27/25 Q1016

TAF

Not found

Frequencies

Ground 121.90 MHz
Approach 119.00 MHz PUERTO PLATA APP
Tower 118.00 MHz PUERTO PLATA TWR
Warning: Do not use this data for real-world aviation or navigation. No guarantee of current accuracy is given.